Malta, Ohio
Current Conditions -  °F | °C
As of 11:53 AM on Friday 28 Nov 2014 (Local Time) from KZZV Reporting Station
Overcast Overcast  
Wind Chill: 20°   Ceiling: 3300
Heat Index: 27°   Visibility: 10mi
Dew Point: 16°   Wind: 6mph
Humidity: 63%   Direction: 250°WSW
Pressure: 30.34"   Gusts: NA
Location:  39.65°N, 81.86°W
Report Text: KZZV 281653Z AUTO 25005KT 10SM OVC033 M03/M09 A3034 RMK AO2 SLP284 T10281089
Loading
Personal Weather Stations






























Interactive Weather Map New forecast layout! Learn more

10-Day Weather Forecast

Advertisements
Track Severe Weather on mobile